createdAt,value
2022-10-02T00:01:22.168Z,99409.97
2022-10-02T00:03:50.302Z,99394.09
2022-10-02T00:06:21.439Z,99388.91
2022-10-02T00:08:49.450Z,99379.91
2022-10-02T00:11:19.940Z,99379.66
2022-10-02T00:13:50.582Z,99385.94
2022-10-02T00:16:24.606Z,99380.41
2022-10-02T00:18:52.629Z,99388.19
2022-10-02T00:21:29.588Z,99391.50
2022-10-02T00:23:59.346Z,99394.78
2022-10-02T00:26:29.875Z,99377.75
2022-10-02T00:29:01.773Z,99383.06
2022-10-02T00:31:35.172Z,99392.81
2022-10-02T00:34:14.351Z,99384.38
2022-10-02T00:36:45.236Z,99381.06
2022-10-02T00:39:19.301Z,99387.34
2022-10-02T00:42:03.062Z,99375.63
2022-10-02T00:44:42.294Z,99367.38
2022-10-02T00:47:11.840Z,99363.13
2022-10-02T00:49:46.526Z,99356.34
2022-10-02T00:52:22.078Z,99335.75
2022-10-02T00:55:00.266Z,99336.28
2022-10-02T00:57:36.054Z,99327.88
2022-10-02T01:00:08.062Z,99319.81
2022-10-02T01:02:46.784Z,99317.66
2022-10-02T01:05:16.018Z,99310.88
2022-10-02T01:07:44.918Z,99294.53
2022-10-02T01:10:13.097Z,99302.13
2022-10-02T01:12:41.087Z,99303.28
2022-10-02T01:15:14.671Z,99299.38
2022-10-02T01:17:42.635Z,99313.72
2022-10-02T01:20:13.974Z,99318.91
2022-10-02T01:22:43.858Z,99321.94
2022-10-02T01:25:13.164Z,99315.66
2022-10-02T01:27:41.129Z,99314.59
2022-10-02T01:30:10.313Z,99302.28
2022-10-02T01:32:41.028Z,99299.06
2022-10-02T01:35:09.736Z,99298.00
2022-10-02T01:37:38.625Z,99290.31
2022-10-02T01:40:09.228Z,99290.06
2022-10-02T01:42:38.708Z,99286.03
2022-10-02T01:45:07.616Z,99280.66
2022-10-02T01:47:40.601Z,99286.28
2022-10-02T01:50:12.393Z,99280.81
2022-10-02T01:52:45.863Z,99283.56
2022-10-02T01:55:23.603Z,99271.41
2022-10-02T01:57:59.442Z,99271.91
2022-10-02T02:00:27.407Z,99266.94
2022-10-02T02:02:59.065Z,99269.41
2022-10-02T02:05:39.730Z,99271.66
2022-10-02T02:08:09.758Z,99280.66
2022-10-02T02:10:44.887Z,99268.03
2022-10-02T02:13:16.290Z,99284.28
2022-10-02T02:15:47.227Z,99287.75
2022-10-02T02:18:19.551Z,99287.75
2022-10-02T02:20:49.278Z,99284.44
2022-10-02T02:23:19.094Z,99273.38
2022-10-02T02:25:48.820Z,99295.00
2022-10-02T02:28:19.297Z,99288.41
2022-10-02T02:30:47.851Z,99288.22
2022-10-02T02:33:18.288Z,99291.00
2022-10-02T02:35:47.402Z,99303.81
2022-10-02T02:38:19.063Z,99309.75
2022-10-02T02:40:47.026Z,99313.56
2022-10-02T02:43:20.690Z,99321.38
2022-10-02T02:45:49.388Z,99321.13
2022-10-02T02:48:19.312Z,99324.31
2022-10-02T02:50:48.418Z,99339.38
2022-10-02T02:53:18.125Z,99338.13
2022-10-02T02:55:47.631Z,99332.91
2022-10-02T02:58:17.013Z,99330.22
2022-10-02T03:00:46.395Z,99345.84
2022-10-02T03:03:14.683Z,99345.84
2022-10-02T03:05:46.580Z,99340.41
2022-10-02T03:08:18.593Z,99350.97
2022-10-02T03:10:51.333Z,99357.00
2022-10-02T03:13:34.418Z,99358.88
2022-10-02T03:16:11.901Z,99365.16
2022-10-02T03:18:51.769Z,99345.28
2022-10-02T03:21:22.081Z,99345.84
2022-10-02T03:23:56.427Z,99355.41
2022-10-02T03:26:29.164Z,99350.69
2022-10-02T03:28:57.869Z,99352.94
2022-10-02T03:31:28.754Z,99353.41
2022-10-02T03:33:56.741Z,99359.78
2022-10-02T03:36:25.415Z,99349.38
2022-10-02T03:39:19.806Z,99350.44
2022-10-02T03:41:41.703Z,99363.91
2022-10-02T03:44:09.747Z,99354.69
2022-10-02T03:46:39.618Z,99364.34
2022-10-02T03:49:07.782Z,99362.84
2022-10-02T03:51:35.718Z,99356.31
2022-10-02T03:54:03.733Z,99367.34
2022-10-02T03:56:36.563Z,99362.84
2022-10-02T03:59:05.227Z,99375.81
2022-10-02T04:01:33.734Z,99370.00
2022-10-02T04:04:05.801Z,99344.50
2022-10-02T04:06:41.935Z,99379.25
2022-10-02T04:09:12.140Z,99380.47
2022-10-02T04:11:41.829Z,99379.00
2022-10-02T04:14:12.148Z,99406.38
2022-10-02T04:16:42.124Z,99406.50
2022-10-02T04:19:13.992Z,99406.94
2022-10-02T04:21:43.524Z,99412.47
2022-10-02T04:24:15.891Z,99419.19
2022-10-02T04:26:46.063Z,99412.75
2022-10-02T04:29:17.174Z,99392.13
2022-10-02T04:31:45.861Z,99413.13
2022-10-02T04:34:15.315Z,99418.34
2022-10-02T04:36:47.612Z,99420.94
2022-10-02T04:39:29.900Z,99420.75
2022-10-02T04:42:15.259Z,99420.66
2022-10-02T04:44:57.240Z,99418.44
2022-10-02T04:47:43.234Z,99378.06
2022-10-02T04:50:20.730Z,99437.41
2022-10-02T04:52:57.032Z,99427.69
2022-10-02T04:55:48.559Z,99399.75
2022-10-02T04:58:34.735Z,99428.19
2022-10-02T05:01:06.731Z,99429.34
2022-10-02T05:03:42.056Z,99449.47
2022-10-02T05:06:21.571Z,99434.28
2022-10-02T05:08:58.476Z,99440.53
2022-10-02T05:11:35.063Z,99439.53
2022-10-02T05:14:29.131Z,99438.13
2022-10-02T05:17:07.500Z,99409.53
2022-10-02T05:19:58.379Z,99432.00
2022-10-02T05:22:49.994Z,99436.53
2022-10-02T05:25:35.176Z,99446.13
2022-10-02T05:28:12.390Z,99443.31
2022-10-02T05:30:45.446Z,99458.00
2022-10-02T05:33:33.106Z,99451.38
2022-10-02T05:36:23.780Z,99445.13
2022-10-02T05:39:02.316Z,99429.91
2022-10-02T05:41:35.206Z,99435.72
2022-10-02T05:44:05.858Z,99438.19
2022-10-02T05:46:35.783Z,99417.34
2022-10-02T05:49:07.081Z,99424.75
2022-10-02T05:51:38.621Z,99430.84
2022-10-02T05:54:11.677Z,99428.69
2022-10-02T05:56:41.011Z,99432.56
2022-10-02T05:59:09.926Z,99433.00
2022-10-02T06:01:39.552Z,99426.38
2022-10-02T06:04:09.178Z,99437.31
2022-10-02T06:06:39.901Z,99438.47
2022-10-02T06:09:18.962Z,99431.59
2022-10-02T06:11:49.792Z,99433.72
2022-10-02T06:14:20.531Z,99433.19
2022-10-02T06:16:50.660Z,99425.31
2022-10-02T06:19:20.871Z,99446.22
2022-10-02T06:21:49.571Z,99443.38
2022-10-02T06:24:21.769Z,99455.31
2022-10-02T06:26:50.785Z,99462.63
2022-10-02T06:29:22.604Z,99458.34
2022-10-02T06:31:55.780Z,99466.44
2022-10-02T06:34:23.762Z,99460.25
2022-10-02T06:37:09.356Z,99477.50
2022-10-02T06:40:01.355Z,99478.19
2022-10-02T06:42:35.702Z,99482.13
2022-10-02T06:45:07.060Z,99477.34
2022-10-02T06:47:44.460Z,99462.22
2022-10-02T06:50:28.164Z,99472.09
2022-10-02T06:52:59.349Z,99473.31
2022-10-02T06:55:37.268Z,99474.84
2022-10-02T06:58:13.188Z,99473.81
2022-10-02T07:00:45.836Z,99472.66
2022-10-02T07:03:42.930Z,99500.13
2022-10-02T07:06:17.457Z,99504.75
2022-10-02T07:09:01.105Z,99481.34
2022-10-02T07:11:33.778Z,99504.53
2022-10-02T07:14:19.586Z,99519.25
2022-10-02T07:17:09.552Z,99523.69
2022-10-02T07:19:44.896Z,99530.91
2022-10-02T07:22:43.328Z,99533.28
2022-10-02T07:25:23.493Z,99543.25
2022-10-02T07:27:55.449Z,99539.09
2022-10-02T07:32:51.960Z,99551.06
2022-10-02T07:35:37.834Z,99550.84
2022-10-02T07:38:44.252Z,99554.56
2022-10-02T07:41:42.930Z,99557.91
2022-10-02T07:44:26.242Z,99573.72
2022-10-02T07:46:56.211Z,99569.38
2022-10-02T07:49:33.099Z,99535.06
2022-10-02T07:52:03.556Z,99565.56
2022-10-02T07:54:52.544Z,99563.31
2022-10-02T07:57:35.458Z,99551.38
2022-10-02T08:00:07.887Z,99551.00
2022-10-02T08:02:39.238Z,99545.56
2022-10-02T08:05:14.013Z,99550.53
2022-10-02T08:07:41.977Z,99556.59
2022-10-02T08:10:11.404Z,99537.00
2022-10-02T08:12:41.151Z,99551.53
2022-10-02T08:15:15.769Z,99549.19
2022-10-02T08:17:46.836Z,99525.03
2022-10-02T08:20:16.822Z,99536.72
2022-10-02T08:22:46.332Z,99548.78
2022-10-02T08:25:17.950Z,99553.03
2022-10-02T08:27:52.628Z,99545.16
2022-10-02T08:30:21.964Z,99574.09
2022-10-02T08:32:49.949Z,99575.09
2022-10-02T08:35:19.666Z,99569.94
2022-10-02T08:38:10.208Z,99567.84
2022-10-02T08:41:16.052Z,99573.66
2022-10-02T08:44:16.412Z,99573.88
2022-10-02T08:47:08.892Z,99569.63
2022-10-02T08:50:02.294Z,99557.47
2022-10-02T08:52:37.405Z,99546.00
2022-10-02T08:55:26.552Z,99570.56
2022-10-02T08:58:13.412Z,99562.94
2022-10-02T09:00:46.734Z,99557.97
2022-10-02T09:03:58.092Z,99581.34
2022-10-02T09:06:59.218Z,99574.25
2022-10-02T09:09:57.389Z,99550.34
2022-10-02T09:12:47.763Z,99580.59
2022-10-02T09:15:17.122Z,99557.78
2022-10-02T09:17:47.065Z,99571.50
2022-10-02T09:20:43.136Z,99573.28
2022-10-02T09:23:36.127Z,99587.00
2022-10-02T09:26:08.884Z,99584.44
2022-10-02T09:29:09.841Z,99601.59
2022-10-02T09:32:11.238Z,99587.81
2022-10-02T09:35:02.145Z,99590.09
2022-10-02T09:37:45.452Z,99601.69
2022-10-02T09:40:43.068Z,99613.16
2022-10-02T09:43:36.306Z,99603.13
2022-10-02T09:46:39.514Z,99624.91
2022-10-02T09:49:42.277Z,99634.44
2022-10-02T09:52:43.019Z,99610.44
2022-10-02T09:55:58.107Z,99628.44
2022-10-02T09:58:59.185Z,99625.03
2022-10-02T10:01:31.653Z,99633.28
2022-10-02T10:04:14.810Z,99649.97
2022-10-02T10:06:52.300Z,99632.09
2022-10-02T10:09:58.845Z,99639.13
2022-10-02T10:13:12.433Z,99634.59
2022-10-02T10:16:28.581Z,99661.69
2022-10-02T10:19:26.210Z,99639.19
2022-10-02T10:22:41.664Z,99615.31
2022-10-02T10:25:37.008Z,99646.25
2022-10-02T10:28:38.052Z,99644.69
2022-10-02T10:31:53.619Z,99651.91
2022-10-02T10:35:06.509Z,99666.84
2022-10-02T10:38:09.302Z,99675.75
2022-10-02T10:40:44.069Z,99663.88
2022-10-02T10:43:47.739Z,99645.69
2022-10-02T10:46:59.112Z,99669.88
2022-10-02T10:49:38.648Z,99656.25
2022-10-02T10:52:14.185Z,99665.63
2022-10-02T10:55:13.668Z,99671.66
2022-10-02T10:57:52.010Z,99678.81
2022-10-02T11:00:22.064Z,99662.91
2022-10-02T11:03:09.368Z,99670.03
2022-10-02T11:06:12.824Z,99655.19
2022-10-02T11:09:16.386Z,99676.13
2022-10-02T11:11:52.534Z,99676.38
2022-10-02T11:14:27.593Z,99680.50
2022-10-02T11:17:28.296Z,99679.75
2022-10-02T11:20:06.386Z,99674.31
2022-10-02T11:22:53.398Z,99679.22
2022-10-02T11:25:29.829Z,99678.69
2022-10-02T11:28:29.698Z,99659.16
2022-10-02T11:31:21.985Z,99661.28
2022-10-02T11:34:20.474Z,99673.84
2022-10-02T11:37:01.144Z,99684.81
2022-10-02T11:39:44.361Z,99677.06
2022-10-02T11:42:34.562Z,99667.69
2022-10-02T11:45:37.414Z,99646.91
2022-10-02T11:48:24.152Z,99668.16
2022-10-02T11:51:10.422Z,99669.69
2022-10-02T11:53:53.750Z,99663.97
2022-10-02T11:56:47.197Z,99672.56
2022-10-02T11:59:30.607Z,99674.94
2022-10-02T12:02:03.021Z,99672.75
2022-10-02T12:04:40.732Z,99652.53
2022-10-02T12:07:19.387Z,99664.28
2022-10-02T12:09:54.940Z,99657.34
2022-10-02T12:12:31.529Z,99674.44
2022-10-02T12:15:01.393Z,99666.97
2022-10-02T12:18:07.086Z,99659.50
2022-10-02T12:21:02.293Z,99647.22
2022-10-02T12:23:52.543Z,99627.63
2022-10-02T12:26:49.224Z,99640.19
2022-10-02T12:29:25.211Z,99631.72
2022-10-02T12:31:54.451Z,99669.00
2022-10-02T12:34:33.300Z,99639.44
2022-10-02T12:37:03.712Z,99642.94
2022-10-02T12:39:41.671Z,99665.84
2022-10-02T12:42:32.987Z,99647.13
2022-10-02T12:45:32.532Z,99646.44
2022-10-02T12:48:15.285Z,99661.13
2022-10-02T12:50:56.900Z,99650.56
2022-10-02T12:53:50.102Z,99639.59
2022-10-02T12:57:09.216Z,99648.16
2022-10-02T12:59:41.749Z,99657.59
2022-10-02T13:03:00.490Z,99658.91
2022-10-02T13:06:07.961Z,99643.00
2022-10-02T13:09:05.884Z,99633.53
2022-10-02T13:11:40.394Z,99653.38
2022-10-02T13:14:20.885Z,99642.63
2022-10-02T13:17:10.033Z,99646.94
2022-10-02T13:19:43.001Z,99638.88
2022-10-02T13:22:13.784Z,99631.38
2022-10-02T13:24:49.151Z,99634.03
2022-10-02T13:27:22.991Z,99623.25
2022-10-02T13:30:02.481Z,99646.34
2022-10-02T13:32:46.007Z,99623.59
2022-10-02T13:35:26.112Z,99621.94
2022-10-02T13:38:00.424Z,99633.97
2022-10-02T13:40:31.407Z,99631.63
2022-10-02T13:43:19.267Z,99654.78
2022-10-02T13:45:49.945Z,99645.06
2022-10-02T13:48:21.289Z,99655.44
2022-10-02T13:50:52.331Z,99650.84
2022-10-02T13:53:41.150Z,99660.16
2022-10-02T13:56:16.091Z,99655.59
2022-10-02T13:58:52.493Z,99644.69
2022-10-02T14:01:26.518Z,99643.88
2022-10-02T14:04:15.639Z,99644.75
2022-10-02T14:06:45.013Z,99666.66
2022-10-02T14:09:17.788Z,99657.72
2022-10-02T14:12:08.977Z,99652.19
2022-10-02T14:14:48.646Z,99660.88
2022-10-02T14:17:20.680Z,99669.84
2022-10-02T14:19:58.015Z,99673.19
2022-10-02T14:22:43.556Z,99677.44
2022-10-02T14:25:22.895Z,99668.66
2022-10-02T14:28:16.121Z,99649.63
2022-10-02T14:30:55.168Z,99660.72
2022-10-02T14:33:27.414Z,99680.69
2022-10-02T14:35:56.389Z,99641.88
2022-10-02T14:38:37.446Z,99672.09
2022-10-02T14:41:25.307Z,99689.56
2022-10-02T14:44:19.298Z,99683.03
2022-10-02T14:46:54.579Z,99663.44
2022-10-02T14:49:55.647Z,99681.47
2022-10-02T14:52:28.584Z,99689.41
2022-10-02T14:55:21.463Z,99682.16
2022-10-02T14:58:11.253Z,99671.72
2022-10-02T15:00:42.476Z,99687.44
2022-10-02T15:03:36.443Z,99685.84
2022-10-02T15:06:17.646Z,99676.66
2022-10-02T15:08:48.280Z,99681.81
2022-10-02T15:11:47.478Z,99687.09
2022-10-02T15:14:18.322Z,99683.97
2022-10-02T15:17:06.037Z,99682.28
2022-10-02T15:19:37.525Z,99695.22
2022-10-02T15:22:09.444Z,99673.63
2022-10-02T15:24:41.894Z,99693.53
2022-10-02T15:27:21.755Z,99688.25
2022-10-02T15:30:15.455Z,99697.44
2022-10-02T15:33:11.669Z,99703.38
2022-10-02T15:36:02.692Z,99718.25
2022-10-02T15:38:47.572Z,99686.91
2022-10-02T15:41:33.419Z,99699.56
2022-10-02T15:44:07.822Z,99718.41
2022-10-02T15:46:38.569Z,99725.66
2022-10-02T15:49:11.064Z,99716.75
2022-10-02T15:51:56.020Z,99728.13
2022-10-02T15:54:32.314Z,99723.44
2022-10-02T15:57:13.135Z,99694.31
2022-10-02T15:59:47.846Z,99731.09
2022-10-02T16:02:25.138Z,99725.38
2022-10-02T16:05:03.168Z,99728.72
2022-10-02T16:08:01.592Z,99720.53
2022-10-02T16:10:34.005Z,99726.09
2022-10-02T16:13:21.460Z,99712.34
2022-10-02T16:15:52.375Z,99713.66
2022-10-02T16:18:32.517Z,99705.97
2022-10-02T16:21:13.903Z,99708.44
2022-10-02T16:24:22.823Z,99716.38
2022-10-02T16:27:10.958Z,99689.09
2022-10-02T16:29:42.126Z,99699.53
2022-10-02T16:32:15.857Z,99720.56
2022-10-02T16:34:48.266Z,99712.13
2022-10-02T16:37:23.202Z,99715.53
2022-10-02T16:39:56.189Z,99724.75
2022-10-02T16:42:32.121Z,99719.78
2022-10-02T16:45:33.709Z,99719.16
2022-10-02T16:48:03.803Z,99712.75
2022-10-02T16:50:41.595Z,99719.94
2022-10-02T16:53:12.898Z,99705.00
2022-10-02T16:55:42.211Z,99705.75
2022-10-02T16:58:14.087Z,99717.81
2022-10-02T17:00:51.883Z,99712.59
2022-10-02T17:03:24.195Z,99719.97
2022-10-02T17:05:53.688Z,99725.59
2022-10-02T17:08:26.544Z,99717.47
2022-10-02T17:11:05.807Z,99724.59
2022-10-02T17:13:35.827Z,99724.25
2022-10-02T17:16:07.104Z,99722.19
2022-10-02T17:18:39.112Z,99723.63
2022-10-02T17:21:13.041Z,99714.13
2022-10-02T17:23:45.170Z,99711.84
2022-10-02T17:26:15.010Z,99693.06
2022-10-02T17:28:46.213Z,99717.81
2022-10-02T17:31:28.772Z,99723.13
2022-10-02T17:33:57.459Z,99718.34
2022-10-02T17:36:31.263Z,99718.97
2022-10-02T17:39:19.627Z,99729.38
2022-10-02T17:41:51.597Z,99727.88
2022-10-02T17:44:36.832Z,99726.50
2022-10-02T17:47:40.368Z,99721.03
2022-10-02T17:50:21.956Z,99723.19
2022-10-02T17:53:09.829Z,99728.75
2022-10-02T17:56:31.184Z,99725.00
2022-10-02T17:59:11.521Z,99712.44
2022-10-02T18:01:41.802Z,99695.41
2022-10-02T18:04:12.647Z,99698.72
2022-10-02T18:06:43.282Z,99712.53
2022-10-02T18:09:32.722Z,99722.72
2022-10-02T18:12:18.546Z,99716.97
2022-10-02T18:15:18.057Z,99714.13
2022-10-02T18:17:54.411Z,99701.66
2022-10-02T18:20:28.061Z,99706.28
2022-10-02T18:23:13.136Z,99707.47
2022-10-02T18:25:53.557Z,99704.06
2022-10-02T18:28:33.016Z,99706.28
2022-10-02T18:31:10.476Z,99710.34
2022-10-02T18:34:06.910Z,99703.25
2022-10-02T18:36:50.122Z,99708.38
2022-10-02T18:39:20.411Z,99706.63
2022-10-02T18:41:56.151Z,99709.28
2022-10-02T18:44:39.287Z,99697.94
2022-10-02T18:47:12.446Z,99702.94
2022-10-02T18:49:53.184Z,99704.00
2022-10-02T18:52:34.881Z,99697.94
2022-10-02T18:55:10.553Z,99701.72
2022-10-02T18:57:45.643Z,99699.06
2022-10-02T19:00:18.943Z,99700.00
2022-10-02T19:03:01.825Z,99698.09
2022-10-02T19:05:31.299Z,99701.47
2022-10-02T19:08:10.928Z,99683.28
2022-10-02T19:10:40.962Z,99708.88
2022-10-02T19:13:22.260Z,99705.09
2022-10-02T19:15:51.021Z,99705.75
2022-10-02T19:18:21.694Z,99709.81
2022-10-02T19:20:55.238Z,99688.66
2022-10-02T19:23:29.222Z,99711.75
2022-10-02T19:25:58.359Z,99733.44
2022-10-02T19:28:28.494Z,99710.22
2022-10-02T19:30:58.520Z,99724.38
2022-10-02T19:33:35.524Z,99720.19
2022-10-02T19:36:05.171Z,99718.53
2022-10-02T19:38:34.009Z,99722.72
2022-10-02T19:41:03.098Z,99724.06
2022-10-02T19:43:32.497Z,99725.34
2022-10-02T19:46:01.838Z,99725.81
2022-10-02T19:48:31.453Z,99714.16
2022-10-02T19:51:00.190Z,99724.22
2022-10-02T19:53:30.702Z,99743.47
2022-10-02T19:55:59.312Z,99723.91
2022-10-02T19:58:30.487Z,99729.56
2022-10-02T20:00:58.468Z,99723.97
2022-10-02T20:03:26.478Z,99724.41
2022-10-02T20:05:58.110Z,99725.66
2022-10-02T20:08:27.942Z,99716.94
2022-10-02T20:10:59.302Z,99715.47
2022-10-02T20:13:30.557Z,99705.50
2022-10-02T20:16:19.496Z,99716.56
2022-10-02T20:18:50.512Z,99709.31
2022-10-02T20:21:23.193Z,99712.66
2022-10-02T20:23:52.602Z,99710.78
2022-10-02T20:26:22.656Z,99708.72
2022-10-02T20:28:52.135Z,99710.41
2022-10-02T20:31:21.630Z,99714.63
2022-10-02T20:33:50.485Z,99724.66
2022-10-02T20:36:21.451Z,99706.72
2022-10-02T20:38:52.025Z,99701.69
2022-10-02T20:41:22.471Z,99696.69
2022-10-02T20:43:51.430Z,99717.56
2022-10-02T20:46:36.793Z,99715.22
2022-10-02T20:49:13.157Z,99717.13
2022-10-02T20:52:00.845Z,99696.28
2022-10-02T20:54:36.350Z,99712.75
2022-10-02T20:57:59.121Z,99690.31
2022-10-02T21:00:25.253Z,99721.31
2022-10-02T21:03:29.772Z,99722.34
2022-10-02T21:06:18.177Z,99724.88
2022-10-02T21:08:56.970Z,99712.78
2022-10-02T21:11:35.789Z,99723.22
2022-10-02T21:14:28.652Z,99726.34
2022-10-02T21:17:27.483Z,99726.97
2022-10-02T21:20:27.717Z,99723.38
2022-10-02T21:23:22.558Z,99726.34
2022-10-02T21:26:26.928Z,99732.38
2022-10-02T21:29:30.215Z,99719.25
2022-10-02T21:32:23.089Z,99701.78
2022-10-02T21:34:59.100Z,99707.59
2022-10-02T21:37:28.429Z,99715.72
2022-10-02T21:40:21.069Z,99696.78
2022-10-02T21:43:28.384Z,99708.44
2022-10-02T21:46:28.170Z,99717.22
2022-10-02T21:49:36.462Z,99713.47
2022-10-02T21:52:48.751Z,99701.19
2022-10-02T21:55:42.880Z,99707.22
2022-10-02T21:58:49.761Z,99694.75
2022-10-02T22:02:04.245Z,99697.28
2022-10-02T22:04:57.924Z,99694.34
2022-10-02T22:07:30.018Z,99703.28
2022-10-02T22:10:00.182Z,99709.75
2022-10-02T22:12:38.484Z,99711.63
2022-10-02T22:15:11.868Z,99713.94
2022-10-02T22:17:48.028Z,99712.47
2022-10-02T22:20:51.144Z,99716.41
2022-10-02T22:23:49.729Z,99712.47
2022-10-02T22:26:30.328Z,99713.50
2022-10-02T22:29:00.649Z,99692.91
2022-10-02T22:31:52.377Z,99704.75
2022-10-02T22:34:27.576Z,99696.84
2022-10-02T22:37:07.713Z,99716.41
2022-10-02T22:39:38.148Z,99718.06
2022-10-02T22:42:08.934Z,99717.47
2022-10-02T22:44:38.260Z,99709.13
2022-10-02T22:47:08.509Z,99698.50
2022-10-02T22:49:39.336Z,99706.00
2022-10-02T22:52:10.168Z,99688.13
2022-10-02T22:54:44.126Z,99710.78
2022-10-02T22:57:21.522Z,99709.31
2022-10-02T22:59:52.884Z,99695.34
2022-10-02T23:02:24.148Z,99698.06
2022-10-02T23:04:55.311Z,99689.94
2022-10-02T23:07:27.260Z,99698.50
2022-10-02T23:09:59.192Z,99708.06
2022-10-02T23:12:33.215Z,99703.91
2022-10-02T23:15:11.635Z,99690.81
2022-10-02T23:17:43.516Z,99700.38
2022-10-02T23:20:18.042Z,99691.84
2022-10-02T23:22:51.391Z,99692.28
2022-10-02T23:25:22.551Z,99691.00
2022-10-02T23:27:55.599Z,99697.28
2022-10-02T23:30:23.599Z,99678.34
2022-10-02T23:32:55.106Z,99683.94
2022-10-02T23:35:27.253Z,99677.28
2022-10-02T23:37:56.652Z,99681.66
2022-10-02T23:40:47.830Z,99685.59
2022-10-02T23:43:18.194Z,99683.94
2022-10-02T23:45:48.576Z,99674.53
2022-10-02T23:48:17.595Z,99685.16
2022-10-02T23:50:52.576Z,99681.41
2022-10-02T23:53:53.184Z,99683.88
2022-10-02T23:56:32.177Z,99667.22
2022-10-02T23:59:13.018Z,99690.34
